Havana, Cuba
Current Conditions -  °F | °C
As of 6:55 AM on Saturday 01 Nov 2014 (Local Time) from MUHA Reporting Station
Few Clouds Few Clouds  
Wind Chill: 22°   Ceiling: Unl
Heat Index: 22°   Visibility: 6mi
Dew Point: 13°   Wind: 8mph
Humidity: 57%   Direction: 350°N
Pressure: 30"   Gusts: NA
Location:  23.12°N, 82.39°W
Report Text: MUHA 011055Z 35007KT 9000 FEW030 22/13 Q1016
Loading
Personal Weather Stations






























Interactive Weather Map
Tropical Storm Tracking
New forecast layout! Learn more

10-Day Weather Forecast

Advertisements
Track Severe Weather on mobile